sensor_id;sensor_type;location;lat;lon;timestamp;P1;durP1;ratioP1;P2;durP2;ratioP2
10659;SDS011;5378;53.206;13.316;2023-02-18T00:02:26;7.50;;;1.73;;
10659;SDS011;5378;53.206;13.316;2023-02-18T00:05:14;23.13;;;3.00;;
10659;SDS011;5378;53.206;13.316;2023-02-18T00:08:01;3.77;;;1.93;;
10659;SDS011;5378;53.206;13.316;2023-02-18T00:10:49;11.13;;;1.30;;
10659;SDS011;5378;53.206;13.316;2023-02-18T00:13:38;14.80;;;2.57;;
10659;SDS011;5378;53.206;13.316;2023-02-18T00:16:25;15.30;;;1.70;;
10659;SDS011;5378;53.206;13.316;2023-02-18T00:19:14;10.60;;;2.43;;
10659;SDS011;5378;53.206;13.316;2023-02-18T00:22:04;19.93;;;2.10;;
10659;SDS011;5378;53.206;13.316;2023-02-18T00:24:52;7.47;;;1.57;;
10659;SDS011;5378;53.206;13.316;2023-02-18T00:27:39;7.27;;;1.43;;
10659;SDS011;5378;53.206;13.316;2023-02-18T00:30:26;11.80;;;1.80;;
10659;SDS011;5378;53.206;13.316;2023-02-18T00:33:13;16.67;;;1.90;;
10659;SDS011;5378;53.206;13.316;2023-02-18T00:36:01;6.77;;;2.23;;
10659;SDS011;5378;53.206;13.316;2023-02-18T00:38:51;8.93;;;3.83;;
10659;SDS011;5378;53.206;13.316;2023-02-18T00:41:40;10.17;;;2.10;;
10659;SDS011;5378;53.206;13.316;2023-02-18T00:44:27;7.73;;;1.80;;
10659;SDS011;5378;53.206;13.316;2023-02-18T00:47:15;13.47;;;1.63;;
10659;SDS011;5378;53.206;13.316;2023-02-18T00:50:02;8.30;;;1.97;;
10659;SDS011;5378;53.206;13.316;2023-02-18T00:52:49;27.93;;;3.90;;
10659;SDS011;5378;53.206;13.316;2023-02-18T00:55:38;4.83;;;1.40;;
10659;SDS011;5378;53.206;13.316;2023-02-18T00:58:26;8.90;;;1.33;;
10659;SDS011;5378;53.206;13.316;2023-02-18T01:01:13;13.70;;;1.40;;
10659;SDS011;5378;53.206;13.316;2023-02-18T01:04:00;14.77;;;1.77;;
10659;SDS011;5378;53.206;13.316;2023-02-18T01:06:48;22.80;;;3.00;;
10659;SDS011;5378;53.206;13.316;2023-02-18T01:09:35;11.83;;;2.50;;
10659;SDS011;5378;53.206;13.316;2023-02-18T01:12:23;14.10;;;2.93;;
10659;SDS011;5378;53.206;13.316;2023-02-18T01:15:13;21.70;;;2.30;;
10659;SDS011;5378;53.206;13.316;2023-02-18T01:18:02;10.17;;;1.57;;
10659;SDS011;5378;53.206;13.316;2023-02-18T01:20:51;17.87;;;1.87;;
10659;SDS011;5378;53.206;13.316;2023-02-18T01:23:40;19.73;;;2.20;;
10659;SDS011;5378;53.206;13.316;2023-02-18T01:26:27;16.57;;;1.80;;
10659;SDS011;5378;53.206;13.316;2023-02-18T01:29:15;13.17;;;1.53;;
10659;SDS011;5378;53.206;13.316;2023-02-18T01:32:02;13.03;;;2.07;;
10659;SDS011;5378;53.206;13.316;2023-02-18T01:34:50;13.97;;;1.70;;
10659;SDS011;5378;53.206;13.316;2023-02-18T01:37:37;16.33;;;1.50;;
10659;SDS011;5378;53.206;13.316;2023-02-18T01:40:25;8.60;;;1.70;;
10659;SDS011;5378;53.206;13.316;2023-02-18T01:43:14;5.53;;;1.63;;
10659;SDS011;5378;53.206;13.316;2023-02-18T01:46:04;3.80;;;1.43;;
10659;SDS011;5378;53.206;13.316;2023-02-18T01:48:55;7.30;;;2.20;;
10659;SDS011;5378;53.206;13.316;2023-02-18T01:51:44;8.47;;;1.87;;
10659;SDS011;5378;53.206;13.316;2023-02-18T01:54:35;20.93;;;3.30;;
10659;SDS011;5378;53.206;13.316;2023-02-18T01:57:26;25.77;;;3.17;;
10659;SDS011;5378;53.206;13.316;2023-02-18T02:00:19;22.47;;;2.30;;
10659;SDS011;5378;53.206;13.316;2023-02-18T02:03:08;12.17;;;1.73;;
10659;SDS011;5378;53.206;13.316;2023-02-18T02:05:55;8.00;;;1.90;;
10659;SDS011;5378;53.206;13.316;2023-02-18T02:08:42;17.37;;;2.83;;
10659;SDS011;5378;53.206;13.316;2023-02-18T02:11:47;5.70;;;1.50;;
10659;SDS011;5378;53.206;13.316;2023-02-18T02:15:05;14.43;;;1.90;;
10659;SDS011;5378;53.206;13.316;2023-02-18T02:18:21;18.97;;;2.50;;
10659;SDS011;5378;53.206;13.316;2023-02-18T02:21:28;14.07;;;1.47;;
10659;SDS011;5378;53.206;13.316;2023-02-18T02:28:00;10.30;;;1.87;;
10659;SDS011;5378;53.206;13.316;2023-02-18T02:36:05;19.10;;;2.17;;
10659;SDS011;5378;53.206;13.316;2023-02-18T02:38:59;7.40;;;2.07;;
10659;SDS011;5378;53.206;13.316;2023-02-18T02:41:53;17.80;;;1.70;;
10659;SDS011;5378;53.206;13.316;2023-02-18T02:44:50;8.50;;;1.30;;
10659;SDS011;5378;53.206;13.316;2023-02-18T02:47:44;7.60;;;1.67;;
10659;SDS011;5378;53.206;13.316;2023-02-18T02:50:37;17.03;;;3.00;;
10659;SDS011;5378;53.206;13.316;2023-02-18T02:53:32;15.70;;;2.20;;
10659;SDS011;5378;53.206;13.316;2023-02-18T02:56:22;12.27;;;1.80;;
10659;SDS011;5378;53.206;13.316;2023-02-18T02:59:13;8.57;;;1.70;;
10659;SDS011;5378;53.206;13.316;2023-02-18T03:02:07;12.10;;;1.70;;
10659;SDS011;5378;53.206;13.316;2023-02-18T03:05:08;12.57;;;2.50;;
10659;SDS011;5378;53.206;13.316;2023-02-18T03:08:03;6.90;;;1.73;;
10659;SDS011;5378;53.206;13.316;2023-02-18T03:11:02;19.70;;;1.57;;
10659;SDS011;5378;53.206;13.316;2023-02-18T03:13:56;10.87;;;2.70;;
10659;SDS011;5378;53.206;13.316;2023-02-18T03:16:57;5.40;;;1.27;;
10659;SDS011;5378;53.206;13.316;2023-02-18T03:19:48;7.30;;;1.10;;
10659;SDS011;5378;53.206;13.316;2023-02-18T03:22:42;38.77;;;3.60;;
10659;SDS011;5378;53.206;13.316;2023-02-18T03:25:32;16.30;;;2.90;;
10659;SDS011;5378;53.206;13.316;2023-02-18T03:28:23;18.00;;;2.03;;
10659;SDS011;5378;53.206;13.316;2023-02-18T03:31:17;17.33;;;2.27;;
10659;SDS011;5378;53.206;13.316;2023-02-18T03:34:08;12.97;;;1.87;;
10659;SDS011;5378;53.206;13.316;2023-02-18T03:37:00;12.30;;;2.53;;
10659;SDS011;5378;53.206;13.316;2023-02-18T03:39:49;13.87;;;1.83;;
10659;SDS011;5378;53.206;13.316;2023-02-18T03:42:41;9.47;;;2.20;;
10659;SDS011;5378;53.206;13.316;2023-02-18T03:45:30;5.50;;;1.50;;
10659;SDS011;5378;53.206;13.316;2023-02-18T03:48:17;13.80;;;1.87;;
10659;SDS011;5378;53.206;13.316;2023-02-18T03:51:04;11.90;;;2.03;;
10659;SDS011;5378;53.206;13.316;2023-02-18T03:53:51;17.43;;;1.80;;
10659;SDS011;5378;53.206;13.316;2023-02-18T03:56:38;16.10;;;1.97;;
10659;SDS011;5378;53.206;13.316;2023-02-18T03:59:26;8.00;;;1.93;;
10659;SDS011;5378;53.206;13.316;2023-02-18T04:02:14;5.10;;;1.17;;
10659;SDS011;5378;53.206;13.316;2023-02-18T04:05:01;15.93;;;2.10;;
10659;SDS011;5378;53.206;13.316;2023-02-18T04:07:48;11.07;;;1.57;;
10659;SDS011;5378;53.206;13.316;2023-02-18T04:10:35;17.47;;;2.97;;
10659;SDS011;5378;53.206;13.316;2023-02-18T04:13:22;5.90;;;1.40;;
10659;SDS011;5378;53.206;13.316;2023-02-18T04:16:09;25.57;;;1.77;;
10659;SDS011;5378;53.206;13.316;2023-02-18T04:18:58;14.73;;;2.37;;
10659;SDS011;5378;53.206;13.316;2023-02-18T04:21:45;12.07;;;2.40;;
10659;SDS011;5378;53.206;13.316;2023-02-18T04:24:32;15.07;;;2.90;;
10659;SDS011;5378;53.206;13.316;2023-02-18T04:27:19;18.23;;;3.20;;
10659;SDS011;5378;53.206;13.316;2023-02-18T04:30:06;15.63;;;2.37;;
10659;SDS011;5378;53.206;13.316;2023-02-18T04:32:54;11.40;;;1.50;;
10659;SDS011;5378;53.206;13.316;2023-02-18T04:35:42;18.20;;;2.10;;
10659;SDS011;5378;53.206;13.316;2023-02-18T04:38:29;29.53;;;2.47;;
10659;SDS011;5378;53.206;13.316;2023-02-18T04:41:17;25.27;;;2.10;;
10659;SDS011;5378;53.206;13.316;2023-02-18T04:44:03;11.57;;;2.60;;
10659;SDS011;5378;53.206;13.316;2023-02-18T04:46:51;5.77;;;2.60;;
10659;SDS011;5378;53.206;13.316;2023-02-18T04:49:38;21.13;;;1.70;;
10659;SDS011;5378;53.206;13.316;2023-02-18T04:52:26;17.83;;;2.63;;
10659;SDS011;5378;53.206;13.316;2023-02-18T04:55:13;18.17;;;2.97;;
10659;SDS011;5378;53.206;13.316;2023-02-18T04:58:01;6.00;;;1.30;;
10659;SDS011;5378;53.206;13.316;2023-02-18T05:00:48;31.13;;;2.97;;
10659;SDS011;5378;53.206;13.316;2023-02-18T05:03:34;12.30;;;1.90;;
10659;SDS011;5378;53.206;13.316;2023-02-18T05:06:22;13.70;;;1.83;;
10659;SDS011;5378;53.206;13.316;2023-02-18T05:09:10;16.33;;;1.73;;
10659;SDS011;5378;53.206;13.316;2023-02-18T05:11:58;13.20;;;1.90;;
10659;SDS011;5378;53.206;13.316;2023-02-18T05:14:45;13.67;;;2.50;;
10659;SDS011;5378;53.206;13.316;2023-02-18T05:17:32;8.93;;;2.33;;
10659;SDS011;5378;53.206;13.316;2023-02-18T05:20:19;8.30;;;1.13;;
10659;SDS011;5378;53.206;13.316;2023-02-18T05:23:06;12.63;;;2.03;;
10659;SDS011;5378;53.206;13.316;2023-02-18T05:25:55;8.20;;;1.20;;
10659;SDS011;5378;53.206;13.316;2023-02-18T05:28:42;6.07;;;1.60;;
10659;SDS011;5378;53.206;13.316;2023-02-18T05:31:29;15.30;;;1.70;;
10659;SDS011;5378;53.206;13.316;2023-02-18T05:34:16;18.23;;;2.90;;
10659;SDS011;5378;53.206;13.316;2023-02-18T05:37:03;14.43;;;1.47;;
10659;SDS011;5378;53.206;13.316;2023-02-18T05:39:51;17.47;;;2.80;;
10659;SDS011;5378;53.206;13.316;2023-02-18T05:42:39;18.10;;;2.40;;
10659;SDS011;5378;53.206;13.316;2023-02-18T05:45:26;9.10;;;2.40;;
10659;SDS011;5378;53.206;13.316;2023-02-18T05:48:13;6.23;;;1.57;;
10659;SDS011;5378;53.206;13.316;2023-02-18T05:51:01;12.80;;;1.37;;
10659;SDS011;5378;53.206;13.316;2023-02-18T05:53:48;20.50;;;2.30;;
10659;SDS011;5378;53.206;13.316;2023-02-18T05:56:35;15.50;;;1.67;;
10659;SDS011;5378;53.206;13.316;2023-02-18T05:59:23;10.50;;;1.43;;
10659;SDS011;5378;53.206;13.316;2023-02-18T06:02:10;19.20;;;2.30;;
10659;SDS011;5378;53.206;13.316;2023-02-18T06:04:58;9.63;;;2.00;;
10659;SDS011;5378;53.206;13.316;2023-02-18T06:07:45;6.63;;;1.33;;
10659;SDS011;5378;53.206;13.316;2023-02-18T06:10:32;5.30;;;1.40;;
10659;SDS011;5378;53.206;13.316;2023-02-18T06:13:19;16.20;;;1.33;;
10659;SDS011;5378;53.206;13.316;2023-02-18T06:16:07;13.33;;;1.60;;
10659;SDS011;5378;53.206;13.316;2023-02-18T06:18:55;11.13;;;1.93;;
10659;SDS011;5378;53.206;13.316;2023-02-18T06:21:42;33.20;;;1.90;;
10659;SDS011;5378;53.206;13.316;2023-02-18T06:24:29;5.60;;;1.57;;
10659;SDS011;5378;53.206;13.316;2023-02-18T06:27:17;12.97;;;1.67;;
10659;SDS011;5378;53.206;13.316;2023-02-18T06:30:04;5.47;;;1.20;;
10659;SDS011;5378;53.206;13.316;2023-02-18T06:32:53;9.80;;;1.80;;
10659;SDS011;5378;53.206;13.316;2023-02-18T06:35:41;9.73;;;1.73;;
10659;SDS011;5378;53.206;13.316;2023-02-18T06:38:28;9.80;;;1.13;;
10659;SDS011;5378;53.206;13.316;2023-02-18T06:41:15;9.00;;;1.17;;
10659;SDS011;5378;53.206;13.316;2023-02-18T06:44:02;14.87;;;1.50;;
10659;SDS011;5378;53.206;13.316;2023-02-18T06:46:49;4.53;;;0.93;;
10659;SDS011;5378;53.206;13.316;2023-02-18T06:49:38;4.30;;;0.90;;
10659;SDS011;5378;53.206;13.316;2023-02-18T06:52:25;7.60;;;1.67;;
10659;SDS011;5378;53.206;13.316;2023-02-18T06:55:12;13.50;;;1.30;;
10659;SDS011;5378;53.206;13.316;2023-02-18T06:57:59;12.17;;;1.97;;
10659;SDS011;5378;53.206;13.316;2023-02-18T07:00:46;10.80;;;1.40;;
10659;SDS011;5378;53.206;13.316;2023-02-18T07:03:33;5.90;;;1.27;;
10659;SDS011;5378;53.206;13.316;2023-02-18T07:06:21;13.90;;;1.50;;
10659;SDS011;5378;53.206;13.316;2023-02-18T07:09:09;11.00;;;3.33;;
10659;SDS011;5378;53.206;13.316;2023-02-18T07:11:56;16.73;;;1.53;;
10659;SDS011;5378;53.206;13.316;2023-02-18T07:14:43;6.90;;;1.47;;
10659;SDS011;5378;53.206;13.316;2023-02-18T07:17:31;5.00;;;1.10;;
10659;SDS011;5378;53.206;13.316;2023-02-18T07:20:18;5.30;;;1.87;;
10659;SDS011;5378;53.206;13.316;2023-02-18T07:23:07;14.60;;;1.50;;
10659;SDS011;5378;53.206;13.316;2023-02-18T07:26:01;6.23;;;1.60;;
10659;SDS011;5378;53.206;13.316;2023-02-18T07:28:49;4.73;;;1.23;;
10659;SDS011;5378;53.206;13.316;2023-02-18T07:31:36;3.57;;;1.30;;
10659;SDS011;5378;53.206;13.316;2023-02-18T07:34:23;13.83;;;1.37;;
10659;SDS011;5378;53.206;13.316;2023-02-18T07:37:10;4.63;;;1.60;;
10659;SDS011;5378;53.206;13.316;2023-02-18T07:39:59;4.70;;;1.40;;
10659;SDS011;5378;53.206;13.316;2023-02-18T07:42:46;3.33;;;1.20;;
10659;SDS011;5378;53.206;13.316;2023-02-18T07:45:33;13.93;;;1.20;;
10659;SDS011;5378;53.206;13.316;2023-02-18T07:48:20;5.83;;;1.33;;
10659;SDS011;5378;53.206;13.316;2023-02-18T07:51:08;6.03;;;1.13;;
10659;SDS011;5378;53.206;13.316;2023-02-18T07:53:55;2.20;;;0.77;;
10659;SDS011;5378;53.206;13.316;2023-02-18T07:56:44;4.43;;;0.90;;
10659;SDS011;5378;53.206;13.316;2023-02-18T07:59:31;1.90;;;0.50;;
10659;SDS011;5378;53.206;13.316;2023-02-18T08:02:19;2.87;;;0.70;;
10659;SDS011;5378;53.206;13.316;2023-02-18T08:05:08;4.07;;;0.67;;
10659;SDS011;5378;53.206;13.316;2023-02-18T08:07:57;7.03;;;1.07;;
10659;SDS011;5378;53.206;13.316;2023-02-18T08:10:44;5.83;;;1.17;;
10659;SDS011;5378;53.206;13.316;2023-02-18T08:13:33;7.50;;;1.10;;
10659;SDS011;5378;53.206;13.316;2023-02-18T08:16:20;4.40;;;0.80;;
10659;SDS011;5378;53.206;13.316;2023-02-18T08:19:08;2.77;;;0.80;;
10659;SDS011;5378;53.206;13.316;2023-02-18T08:21:55;1.80;;;0.60;;
10659;SDS011;5378;53.206;13.316;2023-02-18T08:24:42;2.43;;;0.50;;
10659;SDS011;5378;53.206;13.316;2023-02-18T08:27:30;4.63;;;0.70;;
10659;SDS011;5378;53.206;13.316;2023-02-18T08:30:18;9.47;;;1.33;;
10659;SDS011;5378;53.206;13.316;2023-02-18T08:33:05;7.37;;;0.97;;
10659;SDS011;5378;53.206;13.316;2023-02-18T08:35:53;4.20;;;0.90;;
10659;SDS011;5378;53.206;13.316;2023-02-18T08:38:40;7.57;;;1.60;;
10659;SDS011;5378;53.206;13.316;2023-02-18T08:41:28;2.03;;;0.70;;
10659;SDS011;5378;53.206;13.316;2023-02-18T08:44:15;5.70;;;1.33;;
10659;SDS011;5378;53.206;13.316;2023-02-18T08:47:03;1.17;;;0.60;;
10659;SDS011;5378;53.206;13.316;2023-02-18T08:49:51;5.50;;;0.97;;
10659;SDS011;5378;53.206;13.316;2023-02-18T08:52:38;3.07;;;0.73;;
10659;SDS011;5378;53.206;13.316;2023-02-18T08:55:25;5.50;;;0.93;;
10659;SDS011;5378;53.206;13.316;2023-02-18T08:58:13;11.30;;;1.03;;
10659;SDS011;5378;53.206;13.316;2023-02-18T09:01:00;5.63;;;0.60;;
10659;SDS011;5378;53.206;13.316;2023-02-18T09:03:49;7.63;;;1.03;;
10659;SDS011;5378;53.206;13.316;2023-02-18T09:06:36;13.63;;;1.23;;
10659;SDS011;5378;53.206;13.316;2023-02-18T09:09:24;3.17;;;0.80;;
10659;SDS011;5378;53.206;13.316;2023-02-18T09:12:11;7.70;;;1.00;;
10659;SDS011;5378;53.206;13.316;2023-02-18T09:14:58;6.83;;;1.13;;
10659;SDS011;5378;53.206;13.316;2023-02-18T09:17:46;0.80;;;0.60;;
10659;SDS011;5378;53.206;13.316;2023-02-18T09:20:34;3.43;;;0.60;;
10659;SDS011;5378;53.206;13.316;2023-02-18T09:23:21;8.40;;;1.30;;
10659;SDS011;5378;53.206;13.316;2023-02-18T09:26:09;4.87;;;1.23;;
10659;SDS011;5378;53.206;13.316;2023-02-18T09:28:59;4.50;;;0.90;;
10659;SDS011;5378;53.206;13.316;2023-02-18T09:31:46;4.47;;;1.10;;
10659;SDS011;5378;53.206;13.316;2023-02-18T09:34:33;2.67;;;0.90;;
10659;SDS011;5378;53.206;13.316;2023-02-18T09:37:22;3.40;;;0.60;;
10659;SDS011;5378;53.206;13.316;2023-02-18T09:40:10;2.20;;;0.80;;
10659;SDS011;5378;53.206;13.316;2023-02-18T09:43:08;3.90;;;0.50;;
10659;SDS011;5378;53.206;13.316;2023-02-18T09:46:03;7.00;;;1.20;;
10659;SDS011;5378;53.206;13.316;2023-02-18T09:49:06;4.43;;;1.27;;
10659;SDS011;5378;53.206;13.316;2023-02-18T09:52:02;3.33;;;0.57;;
10659;SDS011;5378;53.206;13.316;2023-02-18T09:54:53;3.53;;;1.17;;
10659;SDS011;5378;53.206;13.316;2023-02-18T09:57:41;3.17;;;1.33;;
10659;SDS011;5378;53.206;13.316;2023-02-18T10:00:31;4.27;;;1.40;;
10659;SDS011;5378;53.206;13.316;2023-02-18T10:03:23;6.47;;;1.70;;
10659;SDS011;5378;53.206;13.316;2023-02-18T10:06:15;4.00;;;0.93;;
10659;SDS011;5378;53.206;13.316;2023-02-18T10:09:15;7.53;;;1.03;;
10659;SDS011;5378;53.206;13.316;2023-02-18T10:12:10;2.93;;;1.00;;
10659;SDS011;5378;53.206;13.316;2023-02-18T10:15:00;3.10;;;1.10;;
10659;SDS011;5378;53.206;13.316;2023-02-18T10:17:48;3.00;;;0.93;;
10659;SDS011;5378;53.206;13.316;2023-02-18T10:20:37;6.37;;;0.80;;
10659;SDS011;5378;53.206;13.316;2023-02-18T10:23:24;3.60;;;0.80;;
10659;SDS011;5378;53.206;13.316;2023-02-18T10:26:13;2.90;;;0.83;;
10659;SDS011;5378;53.206;13.316;2023-02-18T10:29:05;2.07;;;0.90;;
10659;SDS011;5378;53.206;13.316;2023-02-18T10:32:03;5.50;;;1.37;;
10659;SDS011;5378;53.206;13.316;2023-02-18T10:34:53;3.67;;;0.70;;
10659;SDS011;5378;53.206;13.316;2023-02-18T10:37:48;2.80;;;0.70;;
10659;SDS011;5378;53.206;13.316;2023-02-18T10:40:46;2.03;;;0.60;;
10659;SDS011;5378;53.206;13.316;2023-02-18T10:43:44;2.47;;;0.63;;
10659;SDS011;5378;53.206;13.316;2023-02-18T10:46:41;1.20;;;0.90;;
10659;SDS011;5378;53.206;13.316;2023-02-18T10:49:39;0.90;;;0.57;;
10659;SDS011;5378;53.206;13.316;2023-02-18T10:52:48;2.90;;;0.70;;
10659;SDS011;5378;53.206;13.316;2023-02-18T10:55:38;1.73;;;0.43;;
10659;SDS011;5378;53.206;13.316;2023-02-18T10:58:30;1.20;;;0.47;;
10659;SDS011;5378;53.206;13.316;2023-02-18T11:01:19;3.30;;;1.17;;
10659;SDS011;5378;53.206;13.316;2023-02-18T11:04:12;1.70;;;0.60;;
10659;SDS011;5378;53.206;13.316;2023-02-18T11:07:02;5.33;;;1.17;;
10659;SDS011;5378;53.206;13.316;2023-02-18T11:09:51;2.20;;;0.57;;
10659;SDS011;5378;53.206;13.316;2023-02-18T11:12:42;2.40;;;0.60;;
10659;SDS011;5378;53.206;13.316;2023-02-18T11:15:31;1.23;;;0.77;;
10659;SDS011;5378;53.206;13.316;2023-02-18T11:18:24;2.57;;;0.80;;
10659;SDS011;5378;53.206;13.316;2023-02-18T11:21:20;2.50;;;0.77;;
10659;SDS011;5378;53.206;13.316;2023-02-18T11:24:14;1.97;;;0.90;;
10659;SDS011;5378;53.206;13.316;2023-02-18T11:27:03;1.13;;;0.90;;
10659;SDS011;5378;53.206;13.316;2023-02-18T11:29:58;4.47;;;0.90;;
10659;SDS011;5378;53.206;13.316;2023-02-18T11:32:49;2.30;;;0.40;;
10659;SDS011;5378;53.206;13.316;2023-02-18T11:35:39;2.90;;;0.60;;
10659;SDS011;5378;53.206;13.316;2023-02-18T11:38:36;1.07;;;0.50;;
10659;SDS011;5378;53.206;13.316;2023-02-18T11:41:30;3.00;;;0.60;;
10659;SDS011;5378;53.206;13.316;2023-02-18T11:44:21;0.90;;;0.40;;
10659;SDS011;5378;53.206;13.316;2023-02-18T11:47:20;1.43;;;0.40;;
10659;SDS011;5378;53.206;13.316;2023-02-18T11:50:14;0.70;;;0.40;;
10659;SDS011;5378;53.206;13.316;2023-02-18T11:53:25;1.53;;;0.40;;
10659;SDS011;5378;53.206;13.316;2023-02-18T11:56:16;0.60;;;0.40;;
10659;SDS011;5378;53.206;13.316;2023-02-18T11:59:04;1.33;;;0.50;;
10659;SDS011;5378;53.206;13.316;2023-02-18T12:01:56;1.27;;;0.50;;
10659;SDS011;5378;53.206;13.316;2023-02-18T12:04:49;0.70;;;0.40;;
10659;SDS011;5378;53.206;13.316;2023-02-18T12:07:41;2.07;;;0.50;;
10659;SDS011;5378;53.206;13.316;2023-02-18T12:10:32;3.23;;;0.60;;
10659;SDS011;5378;53.206;13.316;2023-02-18T12:13:24;2.20;;;0.90;;
10659;SDS011;5378;53.206;13.316;2023-02-18T12:16:20;3.60;;;0.57;;
10659;SDS011;5378;53.206;13.316;2023-02-18T12:19:23;4.40;;;0.60;;
10659;SDS011;5378;53.206;13.316;2023-02-18T12:22:25;1.07;;;0.40;;
10659;SDS011;5378;53.206;13.316;2023-02-18T12:25:23;4.63;;;0.87;;
10659;SDS011;5378;53.206;13.316;2023-02-18T12:28:18;2.20;;;0.80;;
10659;SDS011;5378;53.206;13.316;2023-02-18T12:31:24;1.63;;;0.53;;
10659;SDS011;5378;53.206;13.316;2023-02-18T12:34:26;0.60;;;0.30;;
10659;SDS011;5378;53.206;13.316;2023-02-18T12:37:32;1.23;;;0.53;;
10659;SDS011;5378;53.206;13.316;2023-02-18T12:40:47;1.87;;;0.47;;
10659;SDS011;5378;53.206;13.316;2023-02-18T12:43:47;2.97;;;0.40;;
10659;SDS011;5378;53.206;13.316;2023-02-18T12:46:49;1.67;;;0.70;;
10659;SDS011;5378;53.206;13.316;2023-02-18T12:49:58;1.30;;;0.67;;
10659;SDS011;5378;53.206;13.316;2023-02-18T12:53:04;1.00;;;0.37;;
10659;SDS011;5378;53.206;13.316;2023-02-18T12:56:05;1.17;;;0.30;;
10659;SDS011;5378;53.206;13.316;2023-02-18T12:59:07;1.27;;;0.67;;
10659;SDS011;5378;53.206;13.316;2023-02-18T13:02:02;1.10;;;0.77;;
10659;SDS011;5378;53.206;13.316;2023-02-18T13:04:57;0.73;;;0.60;;
10659;SDS011;5378;53.206;13.316;2023-02-18T13:07:54;1.47;;;0.97;;
10659;SDS011;5378;53.206;13.316;2023-02-18T13:11:08;2.50;;;0.70;;
10659;SDS011;5378;53.206;13.316;2023-02-18T13:14:09;9.13;;;0.80;;
10659;SDS011;5378;53.206;13.316;2023-02-18T13:16:59;0.80;;;0.50;;
10659;SDS011;5378;53.206;13.316;2023-02-18T13:19:50;2.43;;;1.40;;
10659;SDS011;5378;53.206;13.316;2023-02-18T13:22:41;2.30;;;0.73;;
10659;SDS011;5378;53.206;13.316;2023-02-18T13:25:30;2.00;;;1.10;;
10659;SDS011;5378;53.206;13.316;2023-02-18T13:28:21;2.67;;;1.50;;
10659;SDS011;5378;53.206;13.316;2023-02-18T13:31:16;7.70;;;2.73;;
10659;SDS011;5378;53.206;13.316;2023-02-18T13:34:14;1.57;;;0.60;;
10659;SDS011;5378;53.206;13.316;2023-02-18T13:37:09;5.97;;;1.27;;
10659;SDS011;5378;53.206;13.316;2023-02-18T13:40:04;4.07;;;0.90;;
10659;SDS011;5378;53.206;13.316;2023-02-18T13:43:16;3.27;;;1.10;;
10659;SDS011;5378;53.206;13.316;2023-02-18T13:46:07;1.97;;;1.27;;
10659;SDS011;5378;53.206;13.316;2023-02-18T13:49:04;4.70;;;1.27;;
10659;SDS011;5378;53.206;13.316;2023-02-18T13:51:56;1.43;;;1.03;;
10659;SDS011;5378;53.206;13.316;2023-02-18T13:54:45;2.20;;;1.00;;
10659;SDS011;5378;53.206;13.316;2023-02-18T13:57:35;16.23;;;0.93;;
10659;SDS011;5378;53.206;13.316;2023-02-18T14:00:25;1.50;;;0.93;;
10659;SDS011;5378;53.206;13.316;2023-02-18T14:03:30;1.33;;;1.10;;
10659;SDS011;5378;53.206;13.316;2023-02-18T14:06:25;1.20;;;0.90;;
10659;SDS011;5378;53.206;13.316;2023-02-18T14:12:25;0.90;;;0.50;;
10659;SDS011;5378;53.206;13.316;2023-02-18T14:18:57;0.60;;;0.37;;
10659;SDS011;5378;53.206;13.316;2023-02-18T14:21:48;1.00;;;0.90;;
10659;SDS011;5378;53.206;13.316;2023-02-18T14:24:46;0.83;;;0.60;;
10659;SDS011;5378;53.206;13.316;2023-02-18T14:27:35;0.60;;;0.40;;
10659;SDS011;5378;53.206;13.316;2023-02-18T14:30:24;1.10;;;0.60;;
10659;SDS011;5378;53.206;13.316;2023-02-18T14:33:14;2.13;;;0.60;;
10659;SDS011;5378;53.206;13.316;2023-02-18T14:36:05;0.70;;;0.40;;
10659;SDS011;5378;53.206;13.316;2023-02-18T14:39:13;1.80;;;1.00;;
10659;SDS011;5378;53.206;13.316;2023-02-18T14:42:19;0.83;;;0.40;;
10659;SDS011;5378;53.206;13.316;2023-02-18T14:45:18;1.90;;;0.47;;
10659;SDS011;5378;53.206;13.316;2023-02-18T14:48:21;0.70;;;0.40;;
10659;SDS011;5378;53.206;13.316;2023-02-18T14:51:26;1.53;;;0.70;;
10659;SDS011;5378;53.206;13.316;2023-02-18T14:54:18;2.10;;;0.30;;
10659;SDS011;5378;53.206;13.316;2023-02-18T14:57:08;1.37;;;0.43;;
10659;SDS011;5378;53.206;13.316;2023-02-18T15:00:00;1.13;;;1.00;;
10659;SDS011;5378;53.206;13.316;2023-02-18T15:02:48;1.00;;;0.83;;
10659;SDS011;5378;53.206;13.316;2023-02-18T15:05:37;0.93;;;0.70;;
10659;SDS011;5378;53.206;13.316;2023-02-18T15:08:24;2.07;;;0.90;;
10659;SDS011;5378;53.206;13.316;2023-02-18T15:11:13;1.07;;;0.50;;
10659;SDS011;5378;53.206;13.316;2023-02-18T15:14:00;0.80;;;0.60;;
10659;SDS011;5378;53.206;13.316;2023-02-18T15:16:54;2.30;;;0.80;;
10659;SDS011;5378;53.206;13.316;2023-02-18T15:19:43;1.17;;;0.80;;
10659;SDS011;5378;53.206;13.316;2023-02-18T15:22:33;0.90;;;0.50;;
10659;SDS011;5378;53.206;13.316;2023-02-18T15:25:21;0.83;;;0.60;;
10659;SDS011;5378;53.206;13.316;2023-02-18T15:28:18;1.20;;;0.90;;
10659;SDS011;5378;53.206;13.316;2023-02-18T15:31:09;2.20;;;2.00;;
10659;SDS011;5378;53.206;13.316;2023-02-18T15:34:00;1.80;;;0.83;;
10659;SDS011;5378;53.206;13.316;2023-02-18T15:36:48;2.13;;;0.90;;
10659;SDS011;5378;53.206;13.316;2023-02-18T15:39:36;0.90;;;0.80;;
10659;SDS011;5378;53.206;13.316;2023-02-18T15:42:25;1.53;;;0.97;;
10659;SDS011;5378;53.206;13.316;2023-02-18T15:45:16;1.23;;;0.67;;
10659;SDS011;5378;53.206;13.316;2023-02-18T15:48:05;1.67;;;0.73;;
10659;SDS011;5378;53.206;13.316;2023-02-18T15:50:53;1.63;;;1.00;;
10659;SDS011;5378;53.206;13.316;2023-02-18T15:53:48;1.20;;;0.80;;
10659;SDS011;5378;53.206;13.316;2023-02-18T15:56:38;0.80;;;0.50;;
10659;SDS011;5378;53.206;13.316;2023-02-18T15:59:27;1.47;;;0.63;;
10659;SDS011;5378;53.206;13.316;2023-02-18T16:02:18;0.70;;;0.37;;
10659;SDS011;5378;53.206;13.316;2023-02-18T16:05:11;1.00;;;0.63;;
10659;SDS011;5378;53.206;13.316;2023-02-18T16:08:00;0.50;;;0.30;;
10659;SDS011;5378;53.206;13.316;2023-02-18T16:10:52;0.60;;;0.40;;
10659;SDS011;5378;53.206;13.316;2023-02-18T16:13:43;1.73;;;0.30;;
10659;SDS011;5378;53.206;13.316;2023-02-18T16:16:33;0.60;;;0.33;;
10659;SDS011;5378;53.206;13.316;2023-02-18T16:19:25;1.00;;;0.53;;
10659;SDS011;5378;53.206;13.316;2023-02-18T16:22:23;0.70;;;0.47;;
10659;SDS011;5378;53.206;13.316;2023-02-18T16:25:15;0.67;;;0.27;;
10659;SDS011;5378;53.206;13.316;2023-02-18T16:28:10;0.60;;;0.37;;
10659;SDS011;5378;53.206;13.316;2023-02-18T16:30:59;0.63;;;0.30;;
10659;SDS011;5378;53.206;13.316;2023-02-18T16:33:47;1.10;;;0.43;;
10659;SDS011;5378;53.206;13.316;2023-02-18T16:36:35;0.60;;;0.30;;
10659;SDS011;5378;53.206;13.316;2023-02-18T16:39:42;0.90;;;0.47;;
10659;SDS011;5378;53.206;13.316;2023-02-18T16:42:29;1.33;;;0.50;;
10659;SDS011;5378;53.206;13.316;2023-02-18T16:45:16;0.60;;;0.37;;
10659;SDS011;5378;53.206;13.316;2023-02-18T16:48:04;0.90;;;0.50;;
10659;SDS011;5378;53.206;13.316;2023-02-18T16:50:52;0.67;;;0.30;;
10659;SDS011;5378;53.206;13.316;2023-02-18T16:53:41;0.50;;;0.20;;
10659;SDS011;5378;53.206;13.316;2023-02-18T16:56:28;0.70;;;0.50;;
10659;SDS011;5378;53.206;13.316;2023-02-18T16:59:17;1.37;;;0.47;;
10659;SDS011;5378;53.206;13.316;2023-02-18T17:02:05;1.13;;;0.50;;
10659;SDS011;5378;53.206;13.316;2023-02-18T17:05:01;1.17;;;0.50;;
10659;SDS011;5378;53.206;13.316;2023-02-18T17:07:50;0.70;;;0.50;;
10659;SDS011;5378;53.206;13.316;2023-02-18T17:10:39;1.27;;;0.93;;
10659;SDS011;5378;53.206;13.316;2023-02-18T17:13:27;1.07;;;0.60;;
10659;SDS011;5378;53.206;13.316;2023-02-18T17:16:16;0.70;;;0.60;;
10659;SDS011;5378;53.206;13.316;2023-02-18T17:19:03;0.80;;;0.80;;
10659;SDS011;5378;53.206;13.316;2023-02-18T17:21:50;0.60;;;0.40;;